createdAt,value
2018-12-18T00:00:07.498Z,972.82
2018-12-18T00:01:07.436Z,972.82
2018-12-18T00:02:07.366Z,972.83
2018-12-18T00:03:07.298Z,972.86
2018-12-18T00:04:07.230Z,972.87
2018-12-18T00:05:07.174Z,972.84
2018-12-18T00:06:07.113Z,972.84
2018-12-18T00:07:07.031Z,972.86
2018-12-18T00:08:06.963Z,972.90
2018-12-18T00:09:06.896Z,972.88
2018-12-18T00:10:06.835Z,972.89
2018-12-18T00:11:06.758Z,972.87
2018-12-18T00:12:06.692Z,972.88
2018-12-18T00:13:06.627Z,972.86
2018-12-18T00:14:06.561Z,972.84
2018-12-18T00:15:06.499Z,972.86
2018-12-18T00:16:06.437Z,972.85
2018-12-18T00:17:06.361Z,972.86
2018-12-18T00:18:06.290Z,972.85
2018-12-18T00:19:06.223Z,972.83
2018-12-18T00:20:06.155Z,972.82
2018-12-18T00:21:06.091Z,972.79
2018-12-18T00:22:06.022Z,972.80
2018-12-18T00:23:05.954Z,972.81
2018-12-18T00:24:05.887Z,972.78
2018-12-18T00:25:05.820Z,972.80
2018-12-18T00:26:05.753Z,972.82
2018-12-18T00:27:05.688Z,972.81
2018-12-18T00:28:05.621Z,972.79
2018-12-18T00:29:05.549Z,972.85
2018-12-18T00:30:05.487Z,972.77
2018-12-18T00:31:05.417Z,972.75
2018-12-18T00:32:05.354Z,972.77
2018-12-18T00:33:05.289Z,972.75
2018-12-18T00:34:05.224Z,972.75
2018-12-18T00:35:05.154Z,972.73
2018-12-18T00:36:05.081Z,972.78
2018-12-18T00:37:05.016Z,972.77
2018-12-18T00:38:04.948Z,972.73
2018-12-18T00:39:04.889Z,972.70
2018-12-18T00:40:04.809Z,972.70
2018-12-18T00:41:04.751Z,972.69
2018-12-18T00:42:04.680Z,972.68
2018-12-18T00:43:04.609Z,972.73
2018-12-18T00:44:04.546Z,972.68
2018-12-18T00:45:04.479Z,972.69
2018-12-18T00:46:04.423Z,972.71
2018-12-18T00:47:04.344Z,972.68
2018-12-18T00:48:04.277Z,972.70
2018-12-18T00:49:04.210Z,972.69
2018-12-18T00:50:04.142Z,972.69
2018-12-18T00:51:04.071Z,972.73
2018-12-18T00:52:04.008Z,972.79
2018-12-18T00:53:03.947Z,972.75
2018-12-18T00:54:03.874Z,972.74
2018-12-18T00:55:03.807Z,972.75
2018-12-18T00:56:03.737Z,972.74
2018-12-18T00:57:03.678Z,972.74
2018-12-18T00:58:03.599Z,972.77
2018-12-18T00:59:03.538Z,972.79
2018-12-18T01:00:03.470Z,972.77
2018-12-18T01:01:03.404Z,972.77
2018-12-18T01:02:03.342Z,972.76
2018-12-18T01:03:03.269Z,972.74
2018-12-18T01:04:03.215Z,972.78
2018-12-18T01:05:03.132Z,972.80
2018-12-18T01:06:03.067Z,972.77
2018-12-18T01:07:02.998Z,972.81
2018-12-18T01:08:02.939Z,972.81
2018-12-18T01:09:02.866Z,972.81
2018-12-18T01:10:02.801Z,972.81
2018-12-18T01:11:02.738Z,972.79
2018-12-18T01:12:02.664Z,972.81
2018-12-18T01:13:02.597Z,972.82
2018-12-18T01:14:02.530Z,972.77
2018-12-18T01:15:02.505Z,972.80
2018-12-18T01:16:02.398Z,972.80
2018-12-18T01:17:02.329Z,972.82
2018-12-18T01:18:02.264Z,972.80
2018-12-18T01:19:02.196Z,972.79
2018-12-18T01:20:02.132Z,972.75
2018-12-18T01:21:02.063Z,972.75
2018-12-18T01:22:01.996Z,972.75
2018-12-18T01:23:01.924Z,972.76
2018-12-18T01:24:01.867Z,972.73
2018-12-18T01:25:01.871Z,972.75
2018-12-18T01:26:01.744Z,972.80
2018-12-18T01:27:01.654Z,972.76
2018-12-18T01:28:01.592Z,972.74
2018-12-18T01:29:01.540Z,972.75
2018-12-18T01:30:01.467Z,972.76
2018-12-18T01:31:01.401Z,972.74
2018-12-18T01:32:01.323Z,972.75
2018-12-18T01:33:01.256Z,972.78
2018-12-18T01:34:01.183Z,972.79
2018-12-18T01:35:01.121Z,972.74
2018-12-18T01:36:01.056Z,972.80
2018-12-18T01:37:00.990Z,972.77
2018-12-18T01:38:00.926Z,972.78
2018-12-18T01:39:00.864Z,972.76
2018-12-18T01:40:00.790Z,972.79
2018-12-18T01:41:00.719Z,972.79
2018-12-18T01:42:00.653Z,972.75
2018-12-18T01:43:00.585Z,972.77
2018-12-18T01:44:00.517Z,972.76
2018-12-18T01:45:00.447Z,972.76
2018-12-18T01:46:00.401Z,972.82
2018-12-18T01:47:00.323Z,972.81
2018-12-18T01:48:00.249Z,972.76
2018-12-18T01:49:00.181Z,972.78
2018-12-18T01:50:00.115Z,972.77
2018-12-18T01:51:00.047Z,972.81
2018-12-18T01:51:59.979Z,972.77
2018-12-18T01:52:59.917Z,972.78
2018-12-18T01:53:59.862Z,972.80
2018-12-18T01:54:59.782Z,972.78
2018-12-18T01:55:59.716Z,972.77
2018-12-18T01:56:59.655Z,972.82
2018-12-18T01:57:59.582Z,972.72
2018-12-18T01:58:59.512Z,972.78
2018-12-18T01:59:59.447Z,972.78
2018-12-18T02:00:59.383Z,972.76
2018-12-18T02:01:59.309Z,972.73
2018-12-18T02:02:59.251Z,972.71
2018-12-18T02:04:05.716Z,972.71
2018-12-18T02:04:59.119Z,972.64
2018-12-18T02:05:59.045Z,972.67
2018-12-18T02:06:58.977Z,972.68
2018-12-18T02:07:58.911Z,972.67
2018-12-18T02:08:58.844Z,972.68
2018-12-18T02:09:58.772Z,972.70
2018-12-18T02:10:58.708Z,972.64
2018-12-18T02:11:58.641Z,972.63
2018-12-18T02:12:58.577Z,972.65
2018-12-18T02:13:58.508Z,972.62
2018-12-18T02:14:58.443Z,972.66
2018-12-18T02:15:58.384Z,972.63
2018-12-18T02:16:58.308Z,972.65
2018-12-18T02:17:58.241Z,972.68
2018-12-18T02:18:58.172Z,972.63
2018-12-18T02:19:58.105Z,972.63
2018-12-18T02:20:58.043Z,972.64
2018-12-18T02:21:57.976Z,972.56
2018-12-18T02:22:57.908Z,972.61
2018-12-18T02:23:57.837Z,972.63
2018-12-18T02:24:57.773Z,972.58
2018-12-18T02:25:57.704Z,972.59
2018-12-18T02:26:57.632Z,972.58
2018-12-18T02:27:57.565Z,972.63
2018-12-18T02:28:57.503Z,972.60
2018-12-18T02:29:57.447Z,972.64
2018-12-18T02:30:57.366Z,972.60
2018-12-18T02:31:57.301Z,972.59
2018-12-18T02:32:57.233Z,972.62
2018-12-18T02:33:57.174Z,972.58
2018-12-18T02:34:57.095Z,972.59
2018-12-18T02:35:57.033Z,972.54
2018-12-18T02:36:56.965Z,972.55
2018-12-18T02:37:56.898Z,972.53
2018-12-18T02:38:56.836Z,972.54
2018-12-18T02:39:56.771Z,972.52
2018-12-18T02:40:56.714Z,972.51
2018-12-18T02:41:56.630Z,972.50
2018-12-18T02:42:56.562Z,972.51
2018-12-18T02:43:56.495Z,972.53
2018-12-18T02:44:56.430Z,972.52
2018-12-18T02:45:56.364Z,972.52
2018-12-18T02:46:56.296Z,972.52
2018-12-18T02:47:56.226Z,972.49
2018-12-18T02:48:56.161Z,972.46
2018-12-18T02:49:56.096Z,972.45
2018-12-18T02:50:56.209Z,972.48
2018-12-18T02:51:55.963Z,972.44
2018-12-18T02:52:55.890Z,972.42
2018-12-18T02:53:55.828Z,972.44
2018-12-18T02:54:55.758Z,972.42
2018-12-18T02:55:55.691Z,972.43
2018-12-18T02:56:55.628Z,972.42
2018-12-18T02:57:55.567Z,972.42
2018-12-18T02:58:55.498Z,972.42
2018-12-18T02:59:55.423Z,972.39
2018-12-18T03:00:55.360Z,972.34
2018-12-18T03:01:55.296Z,972.36
2018-12-18T03:02:55.223Z,972.31
2018-12-18T03:03:55.175Z,972.33
2018-12-18T03:04:55.100Z,972.35
2018-12-18T03:05:55.030Z,972.28
2018-12-18T03:06:54.953Z,972.30
2018-12-18T03:07:54.889Z,972.28
2018-12-18T03:08:54.823Z,972.29
2018-12-18T03:09:54.760Z,972.28
2018-12-18T03:10:54.687Z,972.25
2018-12-18T03:11:54.620Z,972.24
2018-12-18T03:12:54.554Z,972.25
2018-12-18T03:13:54.487Z,972.28
2018-12-18T03:14:54.422Z,972.27
2018-12-18T03:15:54.354Z,972.27
2018-12-18T03:16:54.295Z,972.28
2018-12-18T03:17:54.216Z,972.26
2018-12-18T03:18:54.151Z,972.26
2018-12-18T03:19:54.090Z,972.30
2018-12-18T03:20:54.019Z,972.25
2018-12-18T03:21:53.957Z,972.24
2018-12-18T03:22:53.885Z,972.21
2018-12-18T03:23:53.819Z,972.18
2018-12-18T03:24:53.748Z,972.18
2018-12-18T03:25:53.682Z,972.16
2018-12-18T03:26:53.615Z,972.19
2018-12-18T03:27:53.549Z,972.18
2018-12-18T03:28:53.487Z,972.18
2018-12-18T03:29:53.416Z,972.16
2018-12-18T03:30:53.364Z,972.16
2018-12-18T03:31:53.284Z,972.16
2018-12-18T03:32:53.215Z,972.13
2018-12-18T03:33:53.147Z,972.11
2018-12-18T03:34:53.081Z,972.07
2018-12-18T03:35:53.022Z,972.06
2018-12-18T03:36:52.948Z,972.02
2018-12-18T03:37:52.881Z,972.04
2018-12-18T03:38:52.812Z,971.99
2018-12-18T03:39:52.751Z,972.01
2018-12-18T03:40:52.683Z,972.03
2018-12-18T03:41:52.617Z,971.99
2018-12-18T03:42:52.542Z,972.04
2018-12-18T03:43:52.476Z,972.05
2018-12-18T03:44:52.411Z,972.03
2018-12-18T03:45:53.159Z,972.04
2018-12-18T03:46:52.274Z,972.01
2018-12-18T03:47:52.219Z,971.97
2018-12-18T03:48:52.154Z,971.97
2018-12-18T03:49:52.075Z,971.94
2018-12-18T03:50:52.007Z,971.92
2018-12-18T03:51:51.942Z,971.94
2018-12-18T03:52:51.878Z,971.96
2018-12-18T03:53:51.816Z,971.97
2018-12-18T03:54:51.741Z,971.99
2018-12-18T03:55:51.674Z,971.97
2018-12-18T03:56:51.606Z,971.97
2018-12-18T03:57:51.540Z,971.99
2018-12-18T03:58:51.474Z,971.96
2018-12-18T03:59:51.409Z,971.97
2018-12-18T04:00:51.335Z,972.02
2018-12-18T04:01:51.267Z,971.98
2018-12-18T04:02:51.204Z,971.99
2018-12-18T04:03:51.140Z,972.01
2018-12-18T04:04:51.062Z,972.00
2018-12-18T04:05:50.999Z,972.04
2018-12-18T04:06:50.941Z,972.00
2018-12-18T04:07:50.867Z,971.98
2018-12-18T04:08:50.801Z,972.01
2018-12-18T04:09:50.732Z,971.98
2018-12-18T04:10:50.664Z,971.94
2018-12-18T04:11:50.591Z,971.96
2018-12-18T04:12:50.529Z,972.02
2018-12-18T04:13:50.464Z,972.03
2018-12-18T04:14:50.394Z,972.04
2018-12-18T04:15:50.363Z,972.08
2018-12-18T04:16:50.276Z,972.11
2018-12-18T04:17:50.207Z,972.15
2018-12-18T04:18:50.122Z,972.23
2018-12-18T04:19:50.107Z,972.23
2018-12-18T04:20:49.990Z,972.30
2018-12-18T04:21:49.939Z,972.27
2018-12-18T04:22:49.856Z,972.23
2018-12-18T04:23:49.787Z,972.25
2018-12-18T04:24:49.720Z,972.26
2018-12-18T04:25:49.651Z,972.22
2018-12-18T04:26:49.590Z,972.26
2018-12-18T04:27:49.521Z,972.26
2018-12-18T04:28:49.476Z,972.23
2018-12-18T04:29:49.381Z,972.24
2018-12-18T04:30:49.313Z,972.19
2018-12-18T04:31:49.248Z,972.11
2018-12-18T04:32:49.185Z,972.10
2018-12-18T04:33:49.106Z,972.09
2018-12-18T04:34:49.056Z,972.07
2018-12-18T04:35:48.976Z,971.95
2018-12-18T04:36:48.910Z,972.01
2018-12-18T04:37:48.845Z,972.01
2018-12-18T04:38:48.779Z,971.97
2018-12-18T04:39:48.724Z,971.98
2018-12-18T04:40:48.640Z,971.98
2018-12-18T04:41:48.569Z,971.97
2018-12-18T04:42:48.501Z,972.02
2018-12-18T04:43:48.446Z,972.03
2018-12-18T04:44:48.362Z,972.02
2018-12-18T04:45:48.300Z,971.99
2018-12-18T04:46:48.231Z,971.99
2018-12-18T04:47:48.164Z,971.93
2018-12-18T04:48:48.102Z,971.98
2018-12-18T04:49:48.048Z,971.95
2018-12-18T04:50:47.975Z,971.91
2018-12-18T04:51:47.893Z,971.88
2018-12-18T04:52:47.823Z,971.91
2018-12-18T04:53:47.758Z,971.92
2018-12-18T04:54:47.702Z,971.91
2018-12-18T04:55:47.619Z,971.93
2018-12-18T04:56:47.564Z,971.87
2018-12-18T04:57:47.485Z,971.87
2018-12-18T04:58:47.417Z,971.84
2018-12-18T04:59:47.343Z,971.83
2018-12-18T05:00:47.282Z,971.81
2018-12-18T05:01:47.223Z,971.78
2018-12-18T05:02:47.148Z,971.76
2018-12-18T05:03:47.079Z,971.81
2018-12-18T05:04:50.501Z,971.76
2018-12-18T05:05:46.945Z,971.77
2018-12-18T05:06:46.872Z,971.75
2018-12-18T05:07:46.808Z,971.77
2018-12-18T05:08:46.739Z,971.75
2018-12-18T05:09:46.673Z,971.76
2018-12-18T05:10:46.599Z,971.81
2018-12-18T05:11:46.540Z,971.78
2018-12-18T05:12:46.494Z,971.81
2018-12-18T05:13:46.401Z,971.82
2018-12-18T05:14:46.337Z,971.82
2018-12-18T05:15:46.267Z,971.78
2018-12-18T05:16:46.209Z,971.81
2018-12-18T05:17:46.128Z,971.81
2018-12-18T05:18:46.065Z,971.85
2018-12-18T05:19:45.994Z,971.86
2018-12-18T05:20:45.936Z,971.85
2018-12-18T05:21:45.856Z,971.82
2018-12-18T05:22:45.792Z,971.82
2018-12-18T05:23:45.727Z,971.84
2018-12-18T05:24:45.659Z,971.81
2018-12-18T05:25:45.590Z,971.80
2018-12-18T05:26:45.524Z,971.82
2018-12-18T05:27:45.456Z,971.82
2018-12-18T05:28:45.382Z,971.87
2018-12-18T05:29:45.319Z,971.88
2018-12-18T05:30:45.250Z,971.90
2018-12-18T05:31:45.183Z,971.91
2018-12-18T05:32:45.111Z,971.95
2018-12-18T05:33:45.048Z,971.95
2018-12-18T05:34:44.981Z,971.96
2018-12-18T05:35:44.910Z,971.97
2018-12-18T05:36:44.846Z,971.97
2018-12-18T05:37:44.780Z,972.01
2018-12-18T05:38:44.710Z,972.01
2018-12-18T05:39:44.639Z,972.03
2018-12-18T05:40:44.577Z,972.02
2018-12-18T05:41:44.509Z,972.03
2018-12-18T05:42:44.443Z,972.06
2018-12-18T05:43:44.372Z,972.02
2018-12-18T05:44:44.303Z,972.03
2018-12-18T05:45:44.235Z,972.04
2018-12-18T05:46:44.166Z,971.99
2018-12-18T05:47:44.106Z,972.01
2018-12-18T05:48:44.035Z,971.99
2018-12-18T05:49:43.988Z,972.03
2018-12-18T05:50:43.895Z,972.04
2018-12-18T05:51:43.829Z,972.04
2018-12-18T05:52:43.760Z,972.05
2018-12-18T05:53:43.695Z,972.03
2018-12-18T05:54:43.622Z,972.07
2018-12-18T05:55:43.560Z,972.03
2018-12-18T05:56:43.492Z,972.06
2018-12-18T05:57:43.423Z,972.05
2018-12-18T05:58:43.358Z,972.04
2018-12-18T05:59:43.300Z,972.01
2018-12-18T06:00:43.245Z,971.99
2018-12-18T06:01:43.148Z,971.97
2018-12-18T06:02:43.079Z,972.00
2018-12-18T06:03:43.016Z,972.01
2018-12-18T06:04:42.963Z,972.02
2018-12-18T06:05:42.880Z,972.02
2018-12-18T06:06:42.812Z,972.04
2018-12-18T06:07:42.744Z,972.06
2018-12-18T06:08:42.680Z,972.05
2018-12-18T06:09:42.615Z,972.09
2018-12-18T06:10:42.552Z,972.09
2018-12-18T06:11:42.479Z,972.10
2018-12-18T06:12:42.427Z,972.08
2018-12-18T06:13:42.339Z,972.13
2018-12-18T06:14:42.268Z,972.14
2018-12-18T06:15:42.199Z,972.12
2018-12-18T06:16:42.132Z,972.15
2018-12-18T06:17:42.066Z,972.18
2018-12-18T06:18:42.000Z,972.18
2018-12-18T06:19:41.929Z,972.15
2018-12-18T06:20:41.862Z,972.13
2018-12-18T06:21:41.796Z,972.12
2018-12-18T06:22:41.725Z,972.12
2018-12-18T06:23:41.669Z,972.13
2018-12-18T06:24:41.590Z,972.12
2018-12-18T06:25:41.741Z,972.11
2018-12-18T06:26:41.477Z,972.12
2018-12-18T06:27:41.386Z,972.10
2018-12-18T06:28:41.342Z,972.09
2018-12-18T06:29:41.249Z,972.06
2018-12-18T06:30:41.182Z,972.09
2018-12-18T06:31:41.114Z,972.06
2018-12-18T06:32:41.055Z,972.06
2018-12-18T06:33:40.976Z,972.06
2018-12-18T06:34:40.908Z,972.11
2018-12-18T06:35:40.838Z,972.10
2018-12-18T06:36:40.771Z,972.08
2018-12-18T06:37:40.718Z,972.09
2018-12-18T06:38:40.632Z,972.08
2018-12-18T06:39:40.569Z,972.06
2018-12-18T06:40:40.501Z,972.06
2018-12-18T06:41:40.432Z,972.04
2018-12-18T06:42:40.360Z,972.01
2018-12-18T06:43:40.295Z,972.05
2018-12-18T06:44:40.226Z,972.03
2018-12-18T06:45:40.164Z,972.04
2018-12-18T06:46:40.086Z,972.02
2018-12-18T06:47:40.020Z,972.01
2018-12-18T06:48:39.953Z,972.01
2018-12-18T06:49:39.898Z,971.97
2018-12-18T06:50:39.824Z,971.99
2018-12-18T06:51:39.757Z,971.99
2018-12-18T06:52:39.693Z,972.02
2018-12-18T06:53:39.613Z,971.99
2018-12-18T06:54:39.544Z,971.96
2018-12-18T06:55:39.476Z,971.99
2018-12-18T06:56:39.414Z,972.04
2018-12-18T06:57:39.342Z,972.04
2018-12-18T06:58:39.268Z,972.07
2018-12-18T06:59:39.204Z,972.10
2018-12-18T07:00:39.137Z,972.07
2018-12-18T07:01:39.063Z,972.08
2018-12-18T07:02:39.002Z,972.03
2018-12-18T07:03:38.931Z,972.05
2018-12-18T07:04:38.892Z,972.08
2018-12-18T07:05:38.805Z,972.09
2018-12-18T07:06:38.736Z,972.09
2018-12-18T07:07:38.667Z,972.11
2018-12-18T07:08:38.590Z,972.10
2018-12-18T07:09:38.525Z,972.11
2018-12-18T07:10:38.455Z,972.11
2018-12-18T07:11:38.385Z,972.10
2018-12-18T07:12:38.330Z,972.12
2018-12-18T07:13:38.246Z,972.12
2018-12-18T07:14:38.181Z,972.11
2018-12-18T07:15:38.116Z,972.13
2018-12-18T07:16:38.041Z,972.12
2018-12-18T07:17:37.973Z,972.12
2018-12-18T07:18:37.920Z,972.12
2018-12-18T07:19:37.844Z,972.10
2018-12-18T07:20:37.794Z,972.12
2018-12-18T07:21:37.721Z,972.16
2018-12-18T07:22:37.650Z,972.12
2018-12-18T07:23:37.571Z,972.14
2018-12-18T07:24:37.537Z,972.17
2018-12-18T07:25:37.443Z,972.16
2018-12-18T07:26:37.369Z,972.21
2018-12-18T07:27:37.318Z,972.18
2018-12-18T07:28:37.226Z,972.19
2018-12-18T07:29:37.160Z,972.20
2018-12-18T07:30:37.103Z,972.24
2018-12-18T07:31:37.021Z,972.23
2018-12-18T07:32:36.951Z,972.21
2018-12-18T07:33:36.886Z,972.22
2018-12-18T07:34:36.836Z,972.16
2018-12-18T07:35:36.762Z,972.20
2018-12-18T07:36:36.719Z,972.20
2018-12-18T07:37:36.628Z,972.23
2018-12-18T07:38:36.547Z,972.18
2018-12-18T07:39:36.481Z,972.21
2018-12-18T07:40:36.409Z,972.20
2018-12-18T07:41:36.340Z,972.20
2018-12-18T07:42:36.270Z,972.18
2018-12-18T07:43:36.203Z,972.18
2018-12-18T07:44:36.139Z,972.15
2018-12-18T07:45:36.082Z,972.21
2018-12-18T07:46:35.995Z,972.21
2018-12-18T07:47:35.934Z,972.17
2018-12-18T07:48:35.862Z,972.19
2018-12-18T07:49:35.793Z,972.12
2018-12-18T07:50:35.730Z,972.17
2018-12-18T07:51:35.667Z,972.15
2018-12-18T07:52:35.603Z,972.09
2018-12-18T07:53:35.521Z,972.09
2018-12-18T07:54:35.452Z,972.09
2018-12-18T07:55:35.385Z,972.07
2018-12-18T07:56:35.323Z,972.07
2018-12-18T07:57:35.256Z,972.10
2018-12-18T07:58:35.179Z,972.09
2018-12-18T07:59:35.112Z,972.03
2018-12-18T08:00:35.052Z,972.07
2018-12-18T08:01:34.973Z,972.06
2018-12-18T08:02:34.908Z,971.99
2018-12-18T08:03:34.837Z,972.00
2018-12-18T08:04:34.771Z,971.94
2018-12-18T08:05:34.705Z,971.90
2018-12-18T08:06:34.647Z,971.89
2018-12-18T08:07:34.574Z,971.91
2018-12-18T08:08:34.497Z,971.91
2018-12-18T08:09:34.458Z,971.94
2018-12-18T08:10:34.360Z,971.87
2018-12-18T08:11:34.300Z,971.93
2018-12-18T08:12:34.224Z,971.92
2018-12-18T08:13:34.169Z,971.91
2018-12-18T08:14:34.090Z,971.91
2018-12-18T08:15:34.038Z,971.88
2018-12-18T08:16:33.956Z,971.89
2018-12-18T08:17:33.884Z,971.89
2018-12-18T08:18:33.814Z,971.88
2018-12-18T08:19:33.749Z,971.85
2018-12-18T08:20:33.697Z,971.87
2018-12-18T08:21:33.620Z,971.83
2018-12-18T08:22:33.569Z,971.81
2018-12-18T08:23:33.473Z,971.83
2018-12-18T08:24:33.406Z,971.82
2018-12-18T08:25:33.338Z,971.80
2018-12-18T08:26:33.268Z,971.78
2018-12-18T08:27:33.200Z,971.76
2018-12-18T08:28:33.134Z,971.78
2018-12-18T08:29:33.066Z,971.78
2018-12-18T08:30:33.010Z,971.83
2018-12-18T08:31:32.925Z,971.77
2018-12-18T08:32:32.864Z,971.77
2018-12-18T08:33:32.819Z,971.78
2018-12-18T08:34:32.731Z,971.76
2018-12-18T08:35:36.450Z,971.73
2018-12-18T08:36:32.592Z,971.73
2018-12-18T08:37:32.545Z,971.76
2018-12-18T08:38:32.455Z,971.78
2018-12-18T08:39:32.384Z,971.74
2018-12-18T08:40:32.321Z,971.78
2018-12-18T08:41:32.252Z,971.75
2018-12-18T08:42:32.179Z,971.79
2018-12-18T08:43:32.116Z,971.78
2018-12-18T08:44:32.047Z,971.81
2018-12-18T08:45:31.982Z,971.78
2018-12-18T08:46:31.914Z,971.73
2018-12-18T08:47:31.847Z,971.71
2018-12-18T08:48:31.799Z,971.65
2018-12-18T08:49:31.707Z,971.68
2018-12-18T08:50:31.640Z,971.71
2018-12-18T08:51:31.574Z,971.68
2018-12-18T08:52:31.506Z,971.68
2018-12-18T08:53:31.432Z,971.69
2018-12-18T08:54:31.370Z,971.70
2018-12-18T08:55:31.303Z,971.67
2018-12-18T08:56:31.234Z,971.63
2018-12-18T08:57:31.171Z,971.66
2018-12-18T08:58:31.105Z,971.60
2018-12-18T08:59:31.037Z,971.58
2018-12-18T09:00:30.963Z,971.59
2018-12-18T09:01:30.897Z,971.57
2018-12-18T09:02:30.831Z,971.56
2018-12-18T09:03:30.766Z,971.58
2018-12-18T09:04:30.689Z,971.62
2018-12-18T09:05:30.642Z,971.61
2018-12-18T09:06:30.560Z,971.62
2018-12-18T09:07:30.491Z,971.64
2018-12-18T09:08:30.429Z,971.62
2018-12-18T09:09:30.360Z,971.59
2018-12-18T09:10:30.297Z,971.60
2018-12-18T09:11:30.219Z,971.61
2018-12-18T09:12:30.154Z,971.60
2018-12-18T09:13:30.086Z,971.61
2018-12-18T09:14:30.081Z,971.61
2018-12-18T09:15:29.948Z,971.59
2018-12-18T09:16:29.885Z,971.62
2018-12-18T09:17:29.817Z,971.60
2018-12-18T09:18:29.754Z,971.64
2018-12-18T09:19:29.684Z,971.61
2018-12-18T09:20:29.619Z,971.56
2018-12-18T09:21:29.557Z,971.58
2018-12-18T09:22:29.477Z,971.62
2018-12-18T09:23:29.411Z,971.57
2018-12-18T09:24:29.345Z,971.62
2018-12-18T09:25:29.284Z,971.60
2018-12-18T09:26:29.220Z,971.61
2018-12-18T09:27:29.142Z,971.55
2018-12-18T09:28:29.089Z,971.52
2018-12-18T09:29:29.008Z,971.52
2018-12-18T09:30:28.941Z,971.52
2018-12-18T09:31:28.875Z,971.54
2018-12-18T09:32:28.804Z,971.53
2018-12-18T09:33:28.734Z,971.54
2018-12-18T09:34:28.672Z,971.55
2018-12-18T09:35:28.606Z,971.50
2018-12-18T09:36:28.540Z,971.53
2018-12-18T09:37:28.474Z,971.52
2018-12-18T09:38:28.408Z,971.52
2018-12-18T09:39:28.339Z,971.49
2018-12-18T09:40:28.268Z,971.52
2018-12-18T09:41:28.202Z,971.48
2018-12-18T09:42:28.135Z,971.51
2018-12-18T09:43:28.072Z,971.48
2018-12-18T09:44:28.003Z,971.54
2018-12-18T09:45:27.934Z,971.47
2018-12-18T09:46:27.874Z,971.50
2018-12-18T09:47:27.798Z,971.47
2018-12-18T09:48:27.734Z,971.51
2018-12-18T09:49:27.666Z,971.47
2018-12-18T09:50:27.597Z,971.49
2018-12-18T09:51:27.527Z,971.48
2018-12-18T09:52:27.465Z,971.47
2018-12-18T09:53:27.397Z,971.40
2018-12-18T09:54:27.333Z,971.41
2018-12-18T09:55:27.266Z,971.41
2018-12-18T09:56:27.199Z,971.41
2018-12-18T09:57:27.141Z,971.43
2018-12-18T09:58:27.061Z,971.43
2018-12-18T09:59:26.997Z,971.42
2018-12-18T10:00:26.934Z,971.35
2018-12-18T10:01:26.873Z,971.38
2018-12-18T10:02:26.809Z,971.39
2018-12-18T10:03:33.338Z,971.38
2018-12-18T10:04:26.668Z,971.42
2018-12-18T10:05:26.594Z,971.35
2018-12-18T10:06:26.529Z,971.33
2018-12-18T10:07:26.463Z,971.27
2018-12-18T10:08:26.395Z,971.25
2018-12-18T10:09:26.324Z,971.24
2018-12-18T10:10:26.260Z,971.21
2018-12-18T10:11:26.192Z,971.23
2018-12-18T10:12:26.127Z,971.24
2018-12-18T10:13:26.059Z,971.26
2018-12-18T10:14:25.991Z,971.21
2018-12-18T10:15:25.936Z,971.25
2018-12-18T10:16:25.854Z,971.25
2018-12-18T10:17:25.792Z,971.24
2018-12-18T10:18:25.722Z,971.25
2018-12-18T10:19:25.664Z,971.27
2018-12-18T10:20:25.595Z,971.24
2018-12-18T10:21:25.527Z,971.22
2018-12-18T10:22:25.461Z,971.24
2018-12-18T10:23:25.387Z,971.21
2018-12-18T10:24:25.325Z,971.24
2018-12-18T10:25:25.258Z,971.19
2018-12-18T10:26:25.189Z,971.16
2018-12-18T10:27:25.130Z,971.17
2018-12-18T10:28:25.095Z,971.17
2018-12-18T10:29:24.998Z,971.16
2018-12-18T10:30:24.922Z,971.12
2018-12-18T10:31:24.857Z,971.12
2018-12-18T10:32:24.790Z,971.12
2018-12-18T10:33:24.725Z,971.11
2018-12-18T10:34:24.657Z,971.12
2018-12-18T10:35:24.589Z,971.11
2018-12-18T10:36:24.525Z,971.09
2018-12-18T10:37:24.457Z,971.10
2018-12-18T10:38:24.386Z,971.07
2018-12-18T10:39:24.325Z,971.04
2018-12-18T10:40:24.256Z,971.07
2018-12-18T10:41:24.186Z,971.08
2018-12-18T10:42:24.121Z,971.13
2018-12-18T10:43:24.070Z,971.08
2018-12-18T10:44:23.990Z,971.07
2018-12-18T10:45:23.923Z,971.07
2018-12-18T10:46:23.856Z,971.04
2018-12-18T10:47:23.798Z,971.01
2018-12-18T10:48:23.721Z,970.99
2018-12-18T10:49:23.657Z,970.99
2018-12-18T10:50:23.613Z,970.97
2018-12-18T10:51:23.524Z,970.97
2018-12-18T10:52:23.468Z,970.86
2018-12-18T10:53:23.393Z,970.88
2018-12-18T10:54:23.323Z,970.87
2018-12-18T10:55:23.253Z,970.86
2018-12-18T10:56:23.192Z,970.82
2018-12-18T10:57:23.141Z,970.86
2018-12-18T10:58:24.188Z,970.76
2018-12-18T10:59:23.004Z,970.76
2018-12-18T11:00:22.930Z,970.70
2018-12-18T11:01:22.863Z,970.68
2018-12-18T11:02:22.788Z,970.67
2018-12-18T11:03:22.725Z,970.64
2018-12-18T11:04:22.660Z,970.64
2018-12-18T11:05:22.593Z,970.62
2018-12-18T11:06:22.530Z,970.58
2018-12-18T11:07:22.471Z,970.57
2018-12-18T11:08:22.400Z,970.58
2018-12-18T11:09:22.324Z,970.52
2018-12-18T11:10:22.260Z,970.50
2018-12-18T11:11:22.194Z,970.45
2018-12-18T11:12:22.127Z,970.47
2018-12-18T11:13:22.065Z,970.43
2018-12-18T11:14:22.000Z,970.40
2018-12-18T11:15:21.927Z,970.40
2018-12-18T11:16:21.861Z,970.36
2018-12-18T11:17:21.795Z,970.38
2018-12-18T11:18:21.728Z,970.35
2018-12-18T11:19:21.661Z,970.34
2018-12-18T11:20:21.600Z,970.32
2018-12-18T11:21:21.541Z,970.30
2018-12-18T11:22:21.475Z,970.31
2018-12-18T11:23:21.407Z,970.32
2018-12-18T11:24:21.328Z,970.29
2018-12-18T11:25:21.266Z,970.28
2018-12-18T11:26:21.195Z,970.27
2018-12-18T11:27:21.124Z,970.22
2018-12-18T11:28:21.062Z,970.17
2018-12-18T11:29:20.993Z,970.16
2018-12-18T11:30:20.929Z,970.12
2018-12-18T11:31:20.861Z,970.06
2018-12-18T11:32:20.794Z,970.00
2018-12-18T11:33:20.767Z,969.99
2018-12-18T11:34:20.659Z,970.01
2018-12-18T11:35:20.620Z,969.96
2018-12-18T11:36:20.552Z,969.93
2018-12-18T11:37:20.463Z,969.94
2018-12-18T11:38:20.396Z,969.95
2018-12-18T11:39:20.329Z,969.91
2018-12-18T11:40:20.273Z,969.92
2018-12-18T11:41:20.198Z,969.91
2018-12-18T11:42:20.131Z,969.85
2018-12-18T11:43:20.081Z,969.77
2018-12-18T11:44:20.000Z,969.78
2018-12-18T11:45:19.949Z,969.70
2018-12-18T11:46:19.865Z,969.65
2018-12-18T11:47:19.802Z,969.57
2018-12-18T11:48:19.727Z,969.57
2018-12-18T11:49:19.665Z,969.58
2018-12-18T11:50:19.598Z,969.53
2018-12-18T11:51:19.531Z,969.50
2018-12-18T11:52:20.690Z,969.57
2018-12-18T11:53:19.401Z,969.55
2018-12-18T11:54:19.392Z,969.55
2018-12-18T11:55:19.269Z,969.56
2018-12-18T11:56:19.201Z,969.54
2018-12-18T11:57:19.134Z,969.45
2018-12-18T11:58:19.067Z,969.44
2018-12-18T11:59:19.003Z,969.39
2018-12-18T12:00:18.938Z,969.39
2018-12-18T12:01:18.870Z,969.37
2018-12-18T12:02:18.811Z,969.34
2018-12-18T12:03:18.736Z,969.30
2018-12-18T12:04:18.668Z,969.31
2018-12-18T12:05:18.603Z,969.24
2018-12-18T12:06:23.067Z,969.23
2018-12-18T12:07:18.470Z,969.19
2018-12-18T12:08:18.404Z,969.15
2018-12-18T12:09:18.334Z,969.12
2018-12-18T12:10:18.270Z,969.10
2018-12-18T12:11:18.202Z,969.13
2018-12-18T12:12:18.137Z,969.12
2018-12-18T12:13:18.072Z,969.16
2018-12-18T12:14:18.004Z,969.21
2018-12-18T12:15:17.939Z,969.20
2018-12-18T12:16:17.869Z,969.23
2018-12-18T12:17:17.803Z,969.14
2018-12-18T12:18:17.738Z,969.17
2018-12-18T12:19:17.673Z,969.05
2018-12-18T12:20:17.609Z,969.09
2018-12-18T12:21:17.544Z,969.10
2018-12-18T12:22:17.481Z,969.05
2018-12-18T12:23:17.403Z,969.06
2018-12-18T12:24:17.339Z,969.04
2018-12-18T12:25:17.275Z,969.07
2018-12-18T12:26:17.206Z,969.00
2018-12-18T12:27:17.147Z,968.98